createdAt,value
2023-10-01T00:00:39.330Z,12.25
2023-10-01T00:03:10.236Z,12.27
2023-10-01T00:05:41.110Z,12.36
2023-10-01T00:08:12.019Z,12.30
2023-10-01T00:10:42.354Z,12.32
2023-10-01T00:13:10.627Z,12.33
2023-10-01T00:15:39.387Z,12.40
2023-10-01T00:18:09.113Z,12.30
2023-10-01T00:20:37.401Z,12.19
2023-10-01T00:23:07.039Z,12.24
2023-10-01T00:25:37.228Z,12.25
2023-10-01T00:28:09.344Z,12.27
2023-10-01T00:30:37.858Z,12.15
2023-10-01T00:33:08.116Z,12.20
2023-10-01T00:35:41.417Z,12.08
2023-10-01T00:38:10.163Z,12.17
2023-10-01T00:40:38.586Z,12.24
2023-10-01T00:43:07.517Z,12.14
2023-10-01T00:45:35.783Z,12.19
2023-10-01T00:48:07.727Z,12.13
2023-10-01T00:50:39.722Z,12.09
2023-10-01T00:53:10.512Z,12.10
2023-10-01T00:55:38.855Z,11.95
2023-10-01T00:58:07.112Z,11.89
2023-10-01T01:00:35.814Z,11.94
2023-10-01T01:03:09.819Z,12.08
2023-10-01T01:05:42.625Z,12.07
2023-10-01T01:08:22.679Z,11.93
2023-10-01T01:10:53.496Z,11.94
2023-10-01T01:13:26.222Z,11.98
2023-10-01T01:15:54.934Z,12.09
2023-10-01T01:18:24.220Z,12.13
2023-10-01T01:21:00.197Z,12.13
2023-10-01T01:23:33.186Z,12.16
2023-10-01T01:26:02.191Z,12.10
2023-10-01T01:28:33.463Z,12.02
2023-10-01T01:31:03.529Z,11.97
2023-10-01T01:33:34.768Z,11.74
2023-10-01T01:36:06.087Z,11.64
2023-10-01T01:38:38.648Z,11.63
2023-10-01T01:41:13.433Z,11.71
2023-10-01T01:43:41.458Z,11.71
2023-10-01T01:46:12.842Z,11.74
2023-10-01T01:48:42.281Z,11.78
2023-10-01T01:51:11.360Z,11.64
2023-10-01T01:53:43.001Z,11.63
2023-10-01T01:56:13.135Z,11.54
2023-10-01T01:58:44.807Z,11.45
2023-10-01T02:01:25.198Z,11.45
2023-10-01T02:03:55.100Z,11.34
2023-10-01T02:06:29.274Z,11.22
2023-10-01T02:09:00.780Z,11.22
2023-10-01T02:11:34.066Z,11.06
2023-10-01T02:14:04.985Z,11.07
2023-10-01T02:16:41.729Z,11.01
2023-10-01T02:19:20.256Z,10.95
2023-10-01T02:21:54.987Z,11.00
2023-10-01T02:24:38.937Z,11.05
2023-10-01T02:27:10.781Z,11.10
2023-10-01T02:29:47.505Z,11.17
2023-10-01T02:32:16.015Z,11.18
2023-10-01T02:34:44.722Z,11.22
2023-10-01T02:37:16.815Z,11.21
2023-10-01T02:39:46.249Z,11.15
2023-10-01T02:42:23.032Z,11.18
2023-10-01T02:44:55.456Z,11.18
2023-10-01T02:47:26.018Z,11.17
2023-10-01T02:50:00.272Z,11.06
2023-10-01T02:52:38.929Z,11.23
2023-10-01T02:55:19.288Z,11.19
2023-10-01T02:57:51.711Z,11.15
2023-10-01T03:00:21.982Z,11.14
2023-10-01T03:02:55.343Z,11.10
2023-10-01T03:05:30.833Z,10.93
2023-10-01T03:08:04.849Z,10.78
2023-10-01T03:10:39.075Z,10.61
2023-10-01T03:13:16.347Z,10.45
2023-10-01T03:15:45.747Z,10.51
2023-10-01T03:18:35.692Z,10.57
2023-10-01T03:21:19.451Z,10.74
2023-10-01T03:23:54.456Z,10.88
2023-10-01T03:26:27.012Z,10.86
2023-10-01T03:29:12.663Z,10.86
2023-10-01T03:31:44.337Z,10.70
2023-10-01T03:34:29.766Z,10.62
2023-10-01T03:37:01.566Z,10.72
2023-10-01T03:39:29.751Z,10.80
2023-10-01T03:42:12.101Z,10.76
2023-10-01T03:44:57.060Z,10.60
2023-10-01T03:47:25.412Z,10.66
2023-10-01T03:49:55.687Z,10.72
2023-10-01T03:52:22.955Z,10.60
2023-10-01T03:55:01.223Z,10.50
2023-10-01T03:57:31.586Z,10.23
2023-10-01T04:00:20.865Z,10.29
2023-10-01T04:02:48.974Z,10.21
2023-10-01T04:05:32.409Z,10.14
2023-10-01T04:08:02.877Z,10.11
2023-10-01T04:10:32.042Z,10.12
2023-10-01T04:13:13.148Z,10.06
2023-10-01T04:15:47.314Z,10.22
2023-10-01T04:18:22.724Z,10.14
2023-10-01T04:21:12.239Z,10.14
2023-10-01T04:23:49.846Z,10.17
2023-10-01T04:26:19.788Z,10.10
2023-10-01T04:28:52.012Z,9.99
2023-10-01T04:31:41.588Z,10.00
2023-10-01T04:34:12.336Z,10.05
2023-10-01T04:36:40.879Z,10.08
2023-10-01T04:39:10.354Z,10.02
2023-10-01T04:41:39.065Z,9.99
2023-10-01T04:44:08.596Z,10.05
2023-10-01T04:46:39.034Z,10.10
2023-10-01T04:49:36.155Z,10.09
2023-10-01T04:52:12.008Z,10.10
2023-10-01T04:54:45.911Z,10.15
2023-10-01T04:57:14.328Z,10.21
2023-10-01T04:59:59.060Z,10.25
2023-10-01T05:02:31.425Z,10.25
2023-10-01T05:05:11.191Z,10.20
2023-10-01T05:07:40.308Z,10.33
2023-10-01T05:10:11.000Z,10.40
2023-10-01T05:12:44.646Z,10.43
2023-10-01T05:15:23.126Z,10.45
2023-10-01T05:17:51.825Z,10.45
2023-10-01T05:20:20.670Z,10.32
2023-10-01T05:22:55.244Z,10.38
2023-10-01T05:25:26.256Z,10.47
2023-10-01T05:27:55.935Z,10.50
2023-10-01T05:30:36.196Z,10.57
2023-10-01T05:33:07.291Z,10.62
2023-10-01T05:35:42.089Z,10.53
2023-10-01T05:38:11.881Z,10.55
2023-10-01T05:40:41.666Z,10.53
2023-10-01T05:43:16.043Z,10.42
2023-10-01T05:45:52.430Z,10.27
2023-10-01T05:48:21.738Z,10.19
2023-10-01T05:50:50.257Z,10.17
2023-10-01T05:53:20.096Z,10.20
2023-10-01T05:55:48.657Z,10.25
2023-10-01T05:58:17.728Z,10.27
2023-10-01T06:00:58.066Z,10.37
2023-10-01T06:03:28.007Z,10.41
2023-10-01T06:06:00.308Z,10.54
2023-10-01T06:08:33.792Z,10.59
2023-10-01T06:11:07.361Z,10.63
2023-10-01T06:13:40.166Z,10.66
2023-10-01T06:16:17.028Z,10.71
2023-10-01T06:18:56.831Z,10.83
2023-10-01T06:21:26.719Z,10.92
2023-10-01T06:23:59.714Z,11.06
2023-10-01T06:26:34.894Z,11.18
2023-10-01T06:29:03.947Z,11.22
2023-10-01T06:31:50.561Z,11.34
2023-10-01T06:34:22.802Z,11.40
2023-10-01T06:36:52.688Z,11.49
2023-10-01T06:39:22.216Z,11.55
2023-10-01T06:41:51.138Z,11.64
2023-10-01T06:44:20.683Z,11.74
2023-10-01T06:46:52.224Z,11.87
2023-10-01T06:49:21.082Z,11.90
2023-10-01T06:51:51.971Z,11.95
2023-10-01T06:54:20.106Z,12.01
2023-10-01T06:56:49.046Z,12.08
2023-10-01T06:59:18.838Z,12.19
2023-10-01T07:01:57.932Z,12.24
2023-10-01T07:04:33.254Z,12.30
2023-10-01T07:07:21.342Z,12.38
2023-10-01T07:09:50.898Z,12.47
2023-10-01T07:12:19.424Z,12.55
2023-10-01T07:14:52.296Z,12.67
2023-10-01T07:17:25.069Z,12.81
2023-10-01T07:20:20.311Z,12.91
2023-10-01T07:22:50.558Z,13.00
2023-10-01T07:25:39.617Z,13.12
2023-10-01T07:28:13.490Z,13.17
2023-10-01T07:30:52.623Z,13.23
2023-10-01T07:33:22.187Z,13.32
2023-10-01T07:36:02.193Z,13.41
2023-10-01T07:38:32.033Z,13.53
2023-10-01T07:41:00.275Z,13.71
2023-10-01T07:43:29.374Z,13.82
2023-10-01T07:46:00.300Z,13.93
2023-10-01T07:48:29.636Z,14.03
2023-10-01T07:51:04.734Z,14.19
2023-10-01T07:53:35.064Z,14.31
2023-10-01T07:56:03.994Z,14.45
2023-10-01T07:58:52.440Z,14.50
2023-10-01T08:01:40.171Z,14.66
2023-10-01T08:04:10.094Z,14.91
2023-10-01T08:06:44.791Z,14.97
2023-10-01T08:09:14.708Z,15.18
2023-10-01T08:12:06.357Z,15.16
2023-10-01T08:14:35.521Z,15.31
2023-10-01T08:17:04.506Z,15.41
2023-10-01T08:19:45.609Z,15.56
2023-10-01T08:22:17.030Z,15.67
2023-10-01T08:24:50.576Z,15.68
2023-10-01T08:27:31.104Z,15.91
2023-10-01T08:30:18.242Z,15.99
2023-10-01T08:32:51.130Z,16.13
2023-10-01T08:35:24.532Z,16.20
2023-10-01T08:38:01.680Z,16.30
2023-10-01T08:40:36.447Z,16.43
2023-10-01T08:43:07.939Z,16.34
2023-10-01T08:45:40.654Z,16.46
2023-10-01T08:48:10.421Z,16.55
2023-10-01T08:50:41.572Z,16.56
2023-10-01T08:53:14.918Z,16.66
2023-10-01T08:56:05.855Z,16.82
2023-10-01T08:58:49.734Z,17.01
2023-10-01T09:01:21.644Z,17.21
2023-10-01T09:03:57.057Z,17.29
2023-10-01T09:06:32.355Z,17.24
2023-10-01T09:09:21.221Z,17.08
2023-10-01T09:11:51.991Z,17.35
2023-10-01T09:14:38.551Z,17.57
2023-10-01T09:17:26.623Z,17.83
2023-10-01T09:19:55.961Z,17.85
2023-10-01T09:22:41.649Z,17.79
2023-10-01T09:25:26.213Z,17.81
2023-10-01T09:28:01.038Z,18.01
2023-10-01T09:30:33.701Z,18.01
2023-10-01T09:33:06.446Z,18.02
2023-10-01T09:35:51.297Z,18.19
2023-10-01T09:38:21.219Z,18.33
2023-10-01T09:40:53.040Z,18.39
2023-10-01T09:43:26.168Z,18.75
2023-10-01T09:45:56.012Z,19.30
2023-10-01T09:48:31.600Z,19.46
2023-10-01T09:51:09.344Z,19.39
2023-10-01T09:53:49.381Z,19.10
2023-10-01T09:56:30.995Z,19.04
2023-10-01T09:59:03.611Z,19.13
2023-10-01T10:01:33.392Z,19.26
2023-10-01T10:04:04.524Z,19.21
2023-10-01T10:06:34.042Z,19.44
2023-10-01T10:09:07.858Z,19.47
2023-10-01T10:11:46.746Z,19.58
2023-10-01T10:14:46.444Z,19.67
2023-10-01T10:17:21.136Z,19.55
2023-10-01T10:20:23.684Z,19.62
2023-10-01T10:23:23.088Z,19.88
2023-10-01T10:25:51.314Z,19.84
2023-10-01T10:28:27.600Z,19.85
2023-10-01T10:31:32.733Z,20.09
2023-10-01T10:34:26.378Z,19.94
2023-10-01T10:36:59.474Z,20.18
2023-10-01T10:40:04.059Z,20.22
2023-10-01T10:42:34.446Z,20.39
2023-10-01T10:45:24.741Z,20.57
2023-10-01T10:48:01.245Z,20.85
2023-10-01T10:51:22.984Z,21.24
2023-10-01T10:53:53.284Z,21.58
2023-10-01T10:56:36.437Z,21.97
2023-10-01T10:59:05.474Z,22.14
2023-10-01T11:01:45.795Z,22.43
2023-10-01T11:04:16.768Z,22.69
2023-10-01T11:06:45.463Z,22.45
2023-10-01T11:09:26.339Z,22.32
2023-10-01T11:12:03.334Z,22.25
2023-10-01T11:14:32.089Z,22.22
2023-10-01T11:17:01.889Z,22.19
2023-10-01T11:19:36.825Z,22.28
2023-10-01T11:22:07.723Z,22.38
2023-10-01T11:24:38.416Z,22.61
2023-10-01T11:27:16.253Z,22.84
2023-10-01T11:29:45.410Z,22.87
2023-10-01T11:32:18.077Z,22.93
2023-10-01T11:34:52.848Z,23.20
2023-10-01T11:37:21.337Z,23.15
2023-10-01T11:39:53.704Z,23.41
2023-10-01T11:42:30.072Z,23.66
2023-10-01T11:44:58.330Z,23.77
2023-10-01T11:47:35.577Z,23.95
2023-10-01T11:50:09.410Z,24.01
2023-10-01T11:52:41.177Z,24.32
2023-10-01T11:55:20.859Z,24.18
2023-10-01T11:57:53.680Z,24.40
2023-10-01T12:00:41.455Z,24.48
2023-10-01T12:03:12.456Z,24.69
2023-10-01T12:05:43.128Z,24.93
2023-10-01T12:08:19.265Z,24.96
2023-10-01T12:10:52.215Z,24.78
2023-10-01T12:13:24.948Z,25.04
2023-10-01T12:15:53.451Z,24.92
2023-10-01T12:18:35.311Z,24.88
2023-10-01T12:21:23.345Z,24.90
2023-10-01T12:23:51.149Z,25.06
2023-10-01T12:26:32.872Z,24.87
2023-10-01T12:29:16.775Z,24.81
2023-10-01T12:31:45.906Z,24.82
2023-10-01T12:34:15.463Z,24.95
2023-10-01T12:36:47.157Z,24.65
2023-10-01T12:39:28.295Z,24.63
2023-10-01T12:41:59.223Z,24.66
2023-10-01T12:44:29.935Z,24.59
2023-10-01T12:47:02.002Z,24.62
2023-10-01T12:49:34.599Z,24.92
2023-10-01T12:52:02.826Z,24.87
2023-10-01T12:54:29.861Z,24.90
2023-10-01T12:57:10.987Z,25.06
2023-10-01T13:00:19.785Z,25.02
2023-10-01T13:02:50.277Z,25.14
2023-10-01T13:05:21.268Z,25.31
2023-10-01T13:07:51.757Z,25.36
2023-10-01T13:10:20.852Z,25.31
2023-10-01T13:12:57.477Z,25.12
2023-10-01T13:15:32.631Z,24.36
2023-10-01T13:18:02.371Z,24.64
2023-10-01T13:20:42.634Z,24.96
2023-10-01T13:23:10.855Z,25.21
2023-10-01T13:25:40.683Z,25.24
2023-10-01T13:28:09.307Z,25.21
2023-10-01T13:33:54.676Z,25.10
2023-10-01T13:36:36.787Z,25.08
2023-10-01T13:39:16.740Z,24.79
2023-10-01T13:42:01.909Z,25.02
2023-10-01T13:44:47.247Z,25.02
2023-10-01T13:47:32.735Z,24.84
2023-10-01T13:50:33.996Z,24.94
2023-10-01T13:53:19.729Z,24.89
2023-10-01T13:56:06.081Z,24.88
2023-10-01T13:58:52.220Z,24.82
2023-10-01T14:01:38.521Z,24.85
2023-10-01T14:04:24.492Z,24.80
2023-10-01T14:07:11.326Z,24.67
2023-10-01T14:09:53.882Z,24.75
2023-10-01T14:12:37.476Z,24.88
2023-10-01T14:15:22.950Z,24.74
2023-10-01T14:17:57.951Z,24.66
2023-10-01T14:20:49.693Z,24.79
2023-10-01T14:23:33.737Z,24.70
2023-10-01T14:26:17.684Z,24.68
2023-10-01T14:29:00.141Z,24.73
2023-10-01T14:31:51.978Z,24.71
2023-10-01T14:34:28.146Z,24.61
2023-10-01T14:37:07.240Z,24.49
2023-10-01T14:39:54.167Z,24.54
2023-10-01T14:42:39.729Z,24.55
2023-10-01T14:45:17.311Z,24.54
2023-10-01T14:47:59.781Z,24.36
2023-10-01T14:50:42.480Z,24.27
2023-10-01T14:53:17.452Z,24.36
2023-10-01T14:56:00.110Z,24.50
2023-10-01T14:58:34.236Z,24.47
2023-10-01T15:01:11.293Z,24.41
2023-10-01T15:03:47.143Z,24.48
2023-10-01T15:06:22.992Z,24.42
2023-10-01T15:09:03.656Z,24.31
2023-10-01T15:11:41.863Z,24.15
2023-10-01T15:14:24.117Z,23.98
2023-10-01T15:17:09.014Z,23.99
2023-10-01T15:19:55.283Z,23.90
2023-10-01T15:22:37.801Z,23.70
2023-10-01T15:25:16.029Z,23.63
2023-10-01T15:27:54.775Z,23.57
2023-10-01T15:30:32.565Z,23.63
2023-10-01T15:33:03.634Z,23.49
2023-10-01T15:35:32.704Z,23.39
2023-10-01T15:38:02.303Z,23.42
2023-10-01T15:40:31.442Z,23.29
2023-10-01T15:43:02.448Z,23.11
2023-10-01T15:45:32.555Z,23.19
2023-10-01T15:48:08.867Z,23.16
2023-10-01T15:50:40.891Z,23.07
2023-10-01T15:53:19.250Z,23.02
2023-10-01T15:55:58.201Z,22.95
2023-10-01T15:58:28.774Z,22.77
2023-10-01T16:00:56.532Z,22.72
2023-10-01T16:03:31.438Z,22.63
2023-10-01T16:06:10.870Z,22.52
2023-10-01T16:08:50.042Z,22.48
2023-10-01T16:11:37.356Z,22.44
2023-10-01T16:14:18.015Z,22.38
2023-10-01T16:17:00.419Z,22.30
2023-10-01T16:19:38.185Z,22.28
2023-10-01T16:22:16.341Z,22.24
2023-10-01T16:24:46.564Z,22.21
2023-10-01T16:27:29.029Z,22.15
2023-10-01T16:30:25.728Z,22.09
2023-10-01T16:32:58.730Z,22.00
2023-10-01T16:35:29.862Z,21.91
2023-10-01T16:37:59.461Z,21.87
2023-10-01T16:40:29.515Z,21.77
2023-10-01T16:43:01.292Z,21.68
2023-10-01T16:45:32.592Z,21.59
2023-10-01T16:48:08.461Z,21.52
2023-10-01T16:50:57.988Z,21.44
2023-10-01T16:53:32.551Z,21.30
2023-10-01T16:56:14.329Z,21.13
2023-10-01T16:58:44.177Z,20.97
2023-10-01T17:01:16.303Z,20.76
2023-10-01T17:03:55.471Z,20.63
2023-10-01T17:06:26.139Z,20.51
2023-10-01T17:08:57.636Z,20.37
2023-10-01T17:11:28.909Z,20.25
2023-10-01T17:14:11.284Z,20.15
2023-10-01T17:16:42.561Z,20.03
2023-10-01T17:19:11.119Z,19.92
2023-10-01T17:21:45.643Z,19.83
2023-10-01T17:24:15.560Z,19.67
2023-10-01T17:26:51.777Z,19.57
2023-10-01T17:29:27.383Z,19.57
2023-10-01T17:31:59.315Z,19.48
2023-10-01T17:34:31.952Z,19.34
2023-10-01T17:37:04.542Z,19.24
2023-10-01T17:39:34.087Z,19.20
2023-10-01T17:42:05.243Z,19.15
2023-10-01T17:44:40.160Z,19.12
2023-10-01T17:47:12.863Z,19.08
2023-10-01T17:49:47.422Z,19.05
2023-10-01T17:52:29.724Z,19.04
2023-10-01T17:55:02.224Z,19.03
2023-10-01T17:57:38.108Z,19.00
2023-10-01T18:00:36.783Z,18.95
2023-10-01T18:03:11.047Z,18.89
2023-10-01T18:05:43.944Z,18.93
2023-10-01T18:08:12.921Z,18.91
2023-10-01T18:10:43.237Z,18.84
2023-10-01T18:13:16.614Z,18.80
2023-10-01T18:15:52.083Z,18.70
2023-10-01T18:18:27.607Z,18.69
2023-10-01T18:21:06.151Z,18.68
2023-10-01T18:23:44.559Z,18.66
2023-10-01T18:26:20.611Z,18.62
2023-10-01T18:28:49.531Z,18.59
2023-10-01T18:31:19.407Z,18.61
2023-10-01T18:33:55.574Z,18.54
2023-10-01T18:36:29.987Z,18.45
2023-10-01T18:39:01.202Z,18.46
2023-10-01T18:41:36.551Z,18.49
2023-10-01T18:44:15.442Z,18.46
2023-10-01T18:46:48.711Z,18.45
2023-10-01T18:49:27.232Z,18.35
2023-10-01T18:52:03.175Z,18.33
2023-10-01T18:54:35.957Z,18.29
2023-10-01T18:57:07.440Z,18.28
2023-10-01T18:59:38.333Z,18.25
2023-10-01T19:02:12.725Z,18.25
2023-10-01T19:04:44.601Z,18.25
2023-10-01T19:07:17.189Z,18.33
2023-10-01T19:09:50.316Z,18.31
2023-10-01T19:12:24.863Z,18.30
2023-10-01T19:15:11.167Z,18.44
2023-10-01T19:17:50.790Z,18.45
2023-10-01T19:23:57.978Z,18.36
2023-10-01T19:26:32.101Z,18.30
2023-10-01T19:29:05.142Z,18.27
2023-10-01T19:31:40.478Z,18.22
2023-10-01T19:34:12.737Z,18.15
2023-10-01T19:36:59.556Z,18.14
2023-10-01T19:39:42.114Z,18.13
2023-10-01T19:42:49.127Z,18.10
2023-10-01T19:45:23.743Z,18.06
2023-10-01T19:47:52.067Z,18.04
2023-10-01T19:50:37.106Z,17.97
2023-10-01T19:53:45.394Z,17.87
2023-10-01T19:56:16.157Z,17.67
2023-10-01T19:58:49.291Z,17.58
2023-10-01T20:01:18.948Z,17.50
2023-10-01T20:03:48.014Z,17.30
2023-10-01T20:06:21.896Z,17.23
2023-10-01T20:08:57.019Z,17.11
2023-10-01T20:11:26.481Z,17.02
2023-10-01T20:13:55.159Z,16.97
2023-10-01T20:16:24.826Z,17.03
2023-10-01T20:18:56.336Z,17.07
2023-10-01T20:21:28.808Z,17.04
2023-10-01T20:23:59.558Z,16.97
2023-10-01T20:26:33.428Z,16.79
2023-10-01T20:29:01.687Z,16.54
2023-10-01T20:31:29.631Z,16.34
2023-10-01T20:33:57.533Z,16.24
2023-10-01T20:36:27.259Z,16.05
2023-10-01T20:38:56.515Z,15.97
2023-10-01T20:41:26.650Z,16.11
2023-10-01T20:43:56.948Z,15.93
2023-10-01T20:46:25.879Z,15.89
2023-10-01T20:49:00.845Z,16.04
2023-10-01T20:51:38.101Z,16.04
2023-10-01T20:54:08.085Z,15.97
2023-10-01T20:56:38.217Z,15.93
2023-10-01T20:59:14.250Z,16.02
2023-10-01T21:01:49.512Z,15.98
2023-10-01T21:04:26.223Z,15.82
2023-10-01T21:07:02.926Z,15.84
2023-10-01T21:09:38.498Z,15.80
2023-10-01T21:12:13.795Z,15.84
2023-10-01T21:14:47.818Z,15.73
2023-10-01T21:17:23.330Z,15.67
2023-10-01T21:19:54.408Z,15.55
2023-10-01T21:22:30.205Z,15.48
2023-10-01T21:24:59.646Z,15.41
2023-10-01T21:27:29.245Z,15.43
2023-10-01T21:29:57.750Z,15.44
2023-10-01T21:32:25.711Z,15.37
2023-10-01T21:34:55.754Z,15.39
2023-10-01T21:37:25.692Z,15.41
2023-10-01T21:39:58.457Z,15.40
2023-10-01T21:42:33.410Z,15.40
2023-10-01T21:45:21.009Z,15.37
2023-10-01T21:47:50.070Z,15.48
2023-10-01T21:50:17.861Z,15.52
2023-10-01T21:52:45.813Z,15.52
2023-10-01T21:55:14.064Z,15.45
2023-10-01T21:57:44.225Z,15.51
2023-10-01T22:00:33.773Z,15.44
2023-10-01T22:03:08.379Z,15.37
2023-10-01T22:05:38.462Z,15.43
2023-10-01T22:08:10.441Z,15.41
2023-10-01T22:10:40.431Z,15.43
2023-10-01T22:13:12.546Z,15.45
2023-10-01T22:15:40.320Z,15.34
2023-10-01T22:18:23.592Z,15.31
2023-10-01T22:20:53.564Z,15.24
2023-10-01T22:23:29.882Z,15.24
2023-10-01T22:26:01.469Z,15.20
2023-10-01T22:28:34.772Z,15.17
2023-10-01T22:31:06.925Z,15.12
2023-10-01T22:33:38.635Z,15.07
2023-10-01T22:36:10.326Z,15.14
2023-10-01T22:38:38.285Z,15.11
2023-10-01T22:41:09.022Z,15.07
2023-10-01T22:43:39.073Z,15.05
2023-10-01T22:46:08.829Z,15.04
2023-10-01T22:48:47.922Z,15.03
2023-10-01T22:51:24.685Z,15.03
2023-10-01T22:54:00.871Z,14.99
2023-10-01T22:56:29.834Z,14.95
2023-10-01T22:59:06.309Z,15.00
2023-10-01T23:01:35.687Z,15.09
2023-10-01T23:04:11.649Z,15.15
2023-10-01T23:06:43.992Z,15.06
2023-10-01T23:09:19.676Z,14.87
2023-10-01T23:11:49.060Z,14.71
2023-10-01T23:14:21.781Z,14.59
2023-10-01T23:16:52.094Z,14.46
2023-10-01T23:19:37.461Z,14.46
2023-10-01T23:22:11.668Z,14.21
2023-10-01T23:24:53.168Z,14.18
2023-10-01T23:27:24.611Z,14.09
2023-10-01T23:29:54.888Z,14.03
2023-10-01T23:32:26.288Z,13.88
2023-10-01T23:34:54.554Z,13.79
2023-10-01T23:37:38.991Z,13.84
2023-10-01T23:40:12.396Z,13.90
2023-10-01T23:42:46.813Z,13.99
2023-10-01T23:45:17.559Z,13.99
2023-10-01T23:47:46.298Z,13.97
2023-10-01T23:50:40.065Z,13.93
2023-10-01T23:53:08.336Z,13.91
2023-10-01T23:55:36.535Z,13.83
2023-10-01T23:58:23.699Z,13.90
